Time;durP1;ratioP1;P1;durP2;ratioP2;P2;SDS_P1;SDS_P2;PMS_P1;PMS_P2;Temp;Humidity;BMP_temperature;BMP_pressure;BME280_temperature;BME280_humidity;BME280_pressure;Samples;Min_cycle;Max_cycle;Signal;HPM_P1;HPM_P2
2021/12/02 00:01:36;;;;;;;1.83;1.50;;;27.80;96.90;;;;;;5053165;28;20544;-74
2021/12/02 00:04:04;;;;;;;3.60;1.90;;;27.70;97.50;;;;;;5051701;28;20044;-76
2021/12/02 00:06:32;;;;;;;2.25;1.10;;;28.10;96.60;;;;;;5044395;28;20373;-73
2021/12/02 00:08:59;;;;;;;2.65;1.85;;;28.60;96.70;;;;;;5053809;28;20025;-75
2021/12/02 00:11:27;;;;;;;3.65;1.50;;;28.70;96.20;;;;;;5047643;28;20120;-75
2021/12/02 00:13:57;;;;;;;2.55;1.30;;;28.40;96.20;;;;;;5053742;28;20078;-75
2021/12/02 00:16:37;;;;;;;3.80;2.03;;;28.40;96.10;;;;;;5053414;28;20120;-75
2021/12/02 00:21:53;;;;;;;3.67;2.63;;;29.10;95.50;;;;;;5048121;28;20384;-74
2021/12/02 00:24:24;;;;;;;4.03;2.00;;;29.30;95.50;;;;;;5048262;28;20030;-75
2021/12/02 00:26:53;;;;;;;3.20;2.00;;;29.80;95.70;;;;;;5049689;28;20029;-75
2021/12/02 00:29:22;;;;;;;2.72;2.08;;;30.00;94.20;;;;;;5050803;28;20021;-76
2021/12/02 00:31:52;;;;;;;3.78;2.60;;;29.90;94.40;;;;;;5051363;28;20059;-76
2021/12/02 00:34:20;;;;;;;7.03;2.28;;;29.40;94.00;;;;;;5051325;28;20108;-73
2021/12/02 00:36:48;;;;;;;4.72;2.28;;;29.40;94.80;;;;;;5051835;28;20057;-75
2021/12/02 00:39:17;;;;;;;3.47;2.13;;;29.80;93.90;;;;;;5050643;28;20037;-78
2021/12/02 00:41:46;;;;;;;2.13;1.92;;;29.90;94.00;;;;;;5041207;28;20515;-75
2021/12/02 00:44:15;;;;;;;2.60;1.95;;;30.20;94.00;;;;;;5038726;28;20472;-75
2021/12/02 00:46:44;;;;;;;2.70;1.85;;;30.30;93.70;;;;;;5040761;28;20124;-73
2021/12/02 00:49:17;;;;;;;3.65;1.83;;;30.30;93.50;;;;;;5049755;28;20060;-74
2021/12/02 00:51:54;;;;;;;3.53;1.40;;;30.30;92.90;;;;;;5052024;28;20037;-74
2021/12/02 00:54:24;;;;;;;1.85;1.33;;;30.40;93.10;;;;;;5053160;28;20021;-75
2021/12/02 00:56:53;;;;;;;2.65;1.70;;;30.50;92.70;;;;;;5052664;28;20499;-76
2021/12/02 00:59:22;;;;;;;3.78;1.95;;;30.30;92.70;;;;;;5051138;28;20040;-78
2021/12/02 01:01:51;;;;;;;4.82;1.88;;;29.70;93.30;;;;;;5049401;28;20125;-78
2021/12/02 01:04:23;;;;;;;3.60;1.65;;;29.70;94.30;;;;;;5052278;28;20899;-77
2021/12/02 01:06:51;;;;;;;4.47;2.03;;;30.10;93.40;;;;;;5050106;28;20029;-85
2021/12/02 01:09:19;;;;;;;3.20;1.55;;;30.30;93.50;;;;;;5054192;28;20045;-75
2021/12/02 01:11:47;;;;;;;3.17;1.58;;;30.70;92.90;;;;;;5029934;28;20035;-76
2021/12/02 01:14:15;;;;;;;2.08;1.45;;;30.80;92.50;;;;;;5050855;28;20419;-74
2021/12/02 01:16:42;;;;;;;1.77;1.13;;;30.80;91.60;;;;;;5047534;28;20033;-74
2021/12/02 01:19:11;;;;;;;3.22;1.33;;;31.10;91.80;;;;;;5045884;28;20373;-75
2021/12/02 01:21:42;;;;;;;2.05;1.30;;;31.00;90.90;;;;;;5050348;28;20426;-77
2021/12/02 01:24:13;;;;;;;2.25;1.42;;;31.10;91.10;;;;;;5050209;28;20033;-75
2021/12/02 01:26:47;;;;;;;3.95;1.50;;;31.20;90.30;;;;;;5047200;28;20052;-73
2021/12/02 01:29:14;;;;;;;6.32;2.83;;;31.50;90.10;;;;;;5047747;28;20104;-75
2021/12/02 01:31:42;;;;;;;3.95;2.65;;;31.40;90.10;;;;;;5048362;28;20131;-75
2021/12/02 01:34:09;;;;;;;1.90;1.33;;;31.20;89.90;;;;;;5050222;28;20549;-75
2021/12/02 01:36:39;;;;;;;2.97;1.30;;;31.40;90.10;;;;;;5035602;28;20034;-73
2021/12/02 01:39:08;;;;;;;3.40;1.25;;;31.50;89.70;;;;;;5051328;28;20502;-72
2021/12/02 01:41:46;;;;;;;1.58;1.33;;;31.60;88.90;;;;;;5047565;28;20072;-77
2021/12/02 01:44:19;;;;;;;2.10;1.10;;;31.70;89.80;;;;;;5050662;28;20032;-77
2021/12/02 01:46:49;;;;;;;1.83;1.10;;;31.60;87.70;;;;;;5049730;28;20037;-74
2021/12/02 01:49:19;;;;;;;3.10;0.98;;;31.10;87.70;;;;;;5043070;28;20384;-74
2021/12/02 01:51:51;;;;;;;2.60;1.83;;;31.30;89.00;;;;;;5041940;28;20033;-76
2021/12/02 01:54:27;;;;;;;2.10;1.35;;;31.60;89.30;;;;;;5038094;28;20384;-76
2021/12/02 01:57:08;;;;;;;1.88;1.23;;;31.70;88.80;;;;;;5047643;28;20047;-74
2021/12/02 01:59:38;;;;;;;1.30;1.10;;;31.60;87.70;;;;;;5049253;28;20028;-76
2021/12/02 02:02:10;;;;;;;3.55;0.90;;;31.50;87.00;;;;;;5047811;28;20074;-73
2021/12/02 02:04:39;;;;;;;2.60;1.20;;;31.50;87.50;;;;;;5049552;28;20031;-74
2021/12/02 02:07:12;;;;;;;2.45;1.65;;;31.60;87.30;;;;;;5043815;28;20530;-75
2021/12/02 02:09:40;;;;;;;1.70;0.82;;;31.70;87.50;;;;;;5049360;28;20032;-75
2021/12/02 02:12:10;;;;;;;1.17;0.93;;;32.10;87.40;;;;;;5047808;28;20316;-75
2021/12/02 02:14:38;;;;;;;1.17;0.80;;;32.10;85.60;;;;;;5050375;28;20103;-74
2021/12/02 02:17:14;;;;;;;0.90;0.70;;;31.60;86.90;;;;;;5049016;28;20033;-75
2021/12/02 02:19:42;;;;;;;2.00;0.70;;;31.80;87.70;;;;;;5043055;28;20041;-74
2021/12/02 02:22:09;;;;;;;2.17;1.30;;;32.00;83.90;;;;;;5048422;28;20044;-75
2021/12/02 02:24:37;;;;;;;1.98;0.90;;;32.10;86.00;;;;;;5046452;28;20264;-75
2021/12/02 02:27:05;;;;;;;1.95;0.95;;;32.20;85.80;;;;;;5047235;28;20021;-75
2021/12/02 02:29:32;;;;;;;2.38;0.63;;;32.30;85.90;;;;;;5047772;28;20025;-76
2021/12/02 02:31:59;;;;;;;1.98;1.00;;;32.40;85.20;;;;;;5049244;28;20053;-76
2021/12/02 02:34:27;;;;;;;1.33;0.80;;;32.10;85.60;;;;;;5050347;28;20088;-76
2021/12/02 02:36:56;;;;;;;0.73;0.50;;;32.00;84.30;;;;;;5042140;28;20038;-75
2021/12/02 02:39:24;;;;;;;1.05;0.50;;;32.00;84.70;;;;;;5050446;28;20037;-78
2021/12/02 02:41:58;;;;;;;0.80;0.70;;;32.30;85.90;;;;;;5049535;28;20507;-75
2021/12/02 02:44:29;;;;;;;0.88;0.40;;;32.70;84.00;;;;;;5048273;28;20048;-74
2021/12/02 02:46:56;;;;;;;2.88;0.63;;;33.30;87.40;;;;;;5044768;28;20484;-76
2021/12/02 02:49:24;;;;;;;1.52;1.20;;;33.40;82.90;;;;;;5048375;28;20024;-75
2021/12/02 02:51:51;;;;;;;1.35;0.57;;;33.50;84.70;;;;;;5048555;28;20074;-77
2021/12/02 02:54:19;;;;;;;1.30;0.60;;;33.00;81.50;;;;;;5050392;28;20033;-77
2021/12/02 02:56:56;;;;;;;2.45;0.73;;;32.40;83.00;;;;;;5043387;28;20078;-75
2021/12/02 03:02:25;;;;;;;1.08;0.45;;;32.10;84.30;;;;;;5053580;28;20033;-74
2021/12/02 03:05:14;;;;;;;0.82;0.63;;;32.30;83.30;;;;;;5047677;28;20078;-77
2021/12/02 03:07:47;;;;;;;0.70;0.47;;;32.50;83.20;;;;;;5040920;28;20084;-77
2021/12/02 03:10:20;;;;;;;1.70;0.40;;;32.90;82.40;;;;;;5036797;28;20148;-77
2021/12/02 03:13:09;;;;;;;0.65;0.35;;;33.30;81.60;;;;;;5039083;28;20025;-73
2021/12/02 03:18:23;;;;;;;1.70;0.70;;;33.20;81.10;;;;;;5043009;28;20071;-76
2021/12/02 03:20:50;;;;;;;1.60;1.10;;;32.80;81.70;;;;;;5046433;28;20029;-75
2021/12/02 03:23:17;;;;;;;0.63;0.40;;;33.00;80.20;;;;;;5047369;28;20100;-77
2021/12/02 03:25:45;;;;;;;0.85;0.60;;;32.80;80.90;;;;;;5049832;28;20036;-76
2021/12/02 03:28:12;;;;;;;1.05;0.57;;;32.70;79.80;;;;;;5050674;28;20029;-77
2021/12/02 03:30:39;;;;;;;4.38;1.48;;;32.80;81.40;;;;;;5044063;28;20048;-77
2021/12/02 03:33:07;;;;;;;0.70;0.60;;;33.30;82.20;;;;;;5034393;28;20021;-82
2021/12/02 03:35:34;;;;;;;1.67;0.50;;;33.80;78.80;;;;;;5042339;28;20025;-74
2021/12/02 03:38:01;;;;;;;0.82;0.57;;;33.50;78.10;;;;;;5047996;28;20103;-83
2021/12/02 03:40:29;;;;;;;1.27;0.50;;;33.00;79.80;;;;;;5047247;28;20023;-77
2021/12/02 03:42:56;;;;;;;1.05;0.43;;;33.00;79.40;;;;;;5043987;28;20049;-74
2021/12/02 03:45:25;;;;;;;1.23;0.68;;;33.00;77.60;;;;;;5047716;28;20594;-74
2021/12/02 03:47:53;;;;;;;2.08;0.55;;;33.20;78.80;;;;;;5044479;28;20437;-78
2021/12/02 03:50:20;;;;;;;0.93;0.50;;;33.60;77.30;;;;;;5041321;28;20029;-75
2021/12/02 03:52:48;;;;;;;1.17;0.30;;;33.70;77.00;;;;;;5047157;28;20452;-74
2021/12/02 03:55:15;;;;;;;1.13;0.40;;;33.80;77.10;;;;;;5047371;28;20029;-77
2021/12/02 03:57:42;;;;;;;2.28;0.50;;;34.10;77.60;;;;;;5050099;28;20033;-78
2021/12/02 04:00:10;;;;;;;1.33;0.50;;;34.20;77.20;;;;;;5043781;28;20404;-75
2021/12/02 04:02:39;;;;;;;1.17;0.60;;;33.40;77.00;;;;;;5042980;28;20021;-77
2021/12/02 04:05:06;;;;;;;1.25;0.70;;;32.40;78.10;;;;;;5046931;28;20033;-77
2021/12/02 04:07:34;;;;;;;1.23;0.30;;;31.90;79.50;;;;;;5050688;28;20040;-77
2021/12/02 04:10:01;;;;;;;0.65;0.30;;;32.20;79.00;;;;;;5049827;28;20032;-75
2021/12/02 04:15:22;;;;;;;0.50;0.30;;;32.50;78.80;;;;;;5051363;28;20074;-77
2021/12/02 04:17:50;;;;;;;0.95;0.50;;;32.40;78.50;;;;;;5053429;28;20037;-78
2021/12/02 04:20:20;;;;;;;2.67;0.60;;;31.80;79.70;;;;;;5050414;28;20477;-79
2021/12/02 04:22:48;;;;;;;2.33;0.50;;;31.90;80.10;;;;;;5053895;28;20032;-78
2021/12/02 04:25:17;;;;;;;0.32;0.30;;;32.40;79.90;;;;;;5051846;28;20037;-76
2021/12/02 04:27:46;;;;;;;0.95;0.32;;;32.70;79.90;;;;;;5033141;28;20029;-76
2021/12/02 04:30:19;;;;;;;0.90;0.30;;;32.60;78.40;;;;;;5051458;28;20025;-78
2021/12/02 04:32:46;;;;;;;2.20;0.50;;;32.10;78.30;;;;;;5046013;28;20047;-85
2021/12/02 04:35:15;;;;;;;2.53;0.38;;;31.60;79.20;;;;;;5050952;28;20028;-83
2021/12/02 04:37:44;;;;;;;1.20;0.40;;;31.50;80.40;;;;;;5049841;28;20087;-75
2021/12/02 04:40:16;;;;;;;1.20;0.40;;;31.70;77.60;;;;;;5044742;28;20033;-74
2021/12/02 04:42:44;;;;;;;0.57;0.30;;;31.80;78.80;;;;;;5045688;28;20564;-73
2021/12/02 04:45:13;;;;;;;0.70;0.25;;;31.90;81.50;;;;;;5037826;28;20033;-77
2021/12/02 04:47:40;;;;;;;9.10;0.82;;;32.40;79.40;;;;;;5037241;28;20647;-79
2021/12/02 04:50:09;;;;;;;0.93;0.50;;;32.90;78.00;;;;;;5043597;28;20488;-77
2021/12/02 04:52:38;;;;;;;0.98;0.50;;;32.90;76.00;;;;;;5047517;28;20037;-79
2021/12/02 04:55:07;;;;;;;0.57;0.30;;;32.90;76.40;;;;;;5052476;28;20037;-78
2021/12/02 04:57:36;;;;;;;0.28;0.20;;;33.20;82.10;;;;;;5045658;28;20017;-79
2021/12/02 05:00:06;;;;;;;0.38;0.22;;;33.30;81.80;;;;;;5044130;28;20056;-77
2021/12/02 05:02:33;;;;;;;1.50;0.50;;;33.50;80.90;;;;;;5052377;28;20036;-79
2021/12/02 05:05:01;;;;;;;1.05;0.20;;;33.50;81.60;;;;;;5050403;28;20061;-76
2021/12/02 05:07:28;;;;;;;1.00;0.30;;;33.20;81.40;;;;;;5044977;28;20044;-79
2021/12/02 05:09:56;;;;;;;1.38;0.20;;;32.70;82.70;;;;;;5046334;28;20124;-79
2021/12/02 05:12:23;;;;;;;1.02;0.30;;;32.80;83.10;;;;;;5051290;28;20036;-82
2021/12/02 05:14:50;;;;;;;1.42;0.20;;;32.70;84.00;;;;;;5049599;28;20036;-80
2021/12/02 05:17:18;;;;;;;0.65;0.20;;;32.10;84.50;;;;;;5052872;28;20053;-83
2021/12/02 05:19:46;;;;;;;0.35;0.20;;;31.80;85.50;;;;;;5040940;28;20484;-78
2021/12/02 05:22:13;;;;;;;0.85;0.20;;;31.60;85.80;;;;;;5053009;28;20021;-81
2021/12/02 05:24:41;;;;;;;0.85;0.20;;;31.70;87.50;;;;;;5054569;28;20029;-81
2021/12/02 05:27:08;;;;;;;1.40;0.73;;;31.80;86.40;;;;;;5052796;28;20063;-81
2021/12/02 05:29:36;;;;;;;1.15;0.20;;;31.80;87.10;;;;;;5053950;28;20025;-82
2021/12/02 05:32:03;;;;;;;2.88;0.52;;;31.80;87.10;;;;;;5050063;28;20477;-87
2021/12/02 05:34:30;;;;;;;1.23;0.30;;;31.70;87.90;;;;;;5053916;28;20021;-83
2021/12/02 05:36:58;;;;;;;2.20;0.20;;;31.70;87.30;;;;;;5052855;28;20391;-84
2021/12/02 05:39:25;;;;;;;1.17;0.30;;;31.40;87.90;;;;;;5055785;28;20059;-79
2021/12/02 05:41:55;;;;;;;0.98;0.28;;;31.30;88.30;;;;;;5046895;28;20485;-79
2021/12/02 05:44:23;;;;;;;1.10;0.30;;;31.40;88.80;;;;;;5050543;28;20040;-86
2021/12/02 05:46:52;;;;;;;1.25;0.32;;;31.50;88.30;;;;;;5041049;28;20095;-90
2021/12/02 05:49:19;;;;;;;2.47;0.20;;;31.50;88.80;;;;;;5044553;28;20033;-77
2021/12/02 05:51:47;;;;;;;1.13;0.10;;;31.70;88.60;;;;;;5043930;28;20021;-77
2021/12/02 05:54:15;;;;;;;3.58;0.17;;;31.60;87.70;;;;;;5041710;28;20028;-80
2021/12/02 05:56:42;;;;;;;0.47;0.20;;;31.70;88.10;;;;;;5049435;28;20021;-77
2021/12/02 05:59:09;;;;;;;0.57;0.40;;;31.90;87.40;;;;;;5043942;28;20055;-76
2021/12/02 06:01:42;;;;;;;0.50;0.22;;;31.70;87.00;;;;;;5048710;28;20752;-77
2021/12/02 06:04:10;;;;;;;2.33;0.20;;;31.70;87.50;;;;;;5051100;28;20032;-79
2021/12/02 06:06:38;;;;;;;1.02;0.40;;;31.60;87.60;;;;;;5047703;28;20056;-75
2021/12/02 06:09:06;;;;;;;0.98;0.20;;;31.40;87.50;;;;;;5054024;28;20031;-78
2021/12/02 06:11:33;;;;;;;1.15;0.30;;;31.10;88.10;;;;;;5062646;28;20057;-87
2021/12/02 06:14:03;;;;;;;2.25;0.45;;;30.60;89.30;;;;;;5048548;28;20336;-75
2021/12/02 06:16:30;;;;;;;1.83;0.25;;;30.20;90.10;;;;;;5047932;28;20055;-76
2021/12/02 06:18:58;;;;;;;0.80;0.30;;;30.10;90.40;;;;;;5049612;28;20025;-77
2021/12/02 06:21:25;;;;;;;1.35;0.50;;;30.10;90.80;;;;;;5045236;28;21623;-78
2021/12/02 06:23:53;;;;;;;1.52;0.40;;;30.00;90.50;;;;;;5039993;28;20500;-79
2021/12/02 06:26:20;;;;;;;2.22;0.50;;;29.90;90.60;;;;;;5045848;28;20040;-76
2021/12/02 06:28:47;;;;;;;0.77;0.35;;;29.90;90.80;;;;;;5046862;28;20029;-79
2021/12/02 06:31:15;;;;;;;1.92;0.70;;;29.90;90.90;;;;;;5045780;28;20075;-77
2021/12/02 06:33:42;;;;;;;3.80;0.52;;;29.90;91.00;;;;;;5048028;28;20027;-76
2021/12/02 06:36:09;;;;;;;2.70;0.40;;;29.90;90.90;;;;;;5046240;28;20061;-82
2021/12/02 06:38:37;;;;;;;0.60;0.30;;;29.80;90.90;;;;;;5047952;28;20048;-77
2021/12/02 06:41:04;;;;;;;1.23;0.30;;;29.80;91.10;;;;;;5046978;28;20029;-83
2021/12/02 06:43:31;;;;;;;2.70;0.40;;;29.80;90.90;;;;;;5049133;28;20122;-78
2021/12/02 06:45:59;;;;;;;0.75;0.30;;;29.50;91.10;;;;;;5044644;28;20043;-79
2021/12/02 06:48:26;;;;;;;3.13;0.55;;;29.20;91.60;;;;;;5049376;28;20075;-82
2021/12/02 06:50:53;;;;;;;2.00;0.88;;;29.00;91.90;;;;;;5050014;28;20036;-76
2021/12/02 06:53:21;;;;;;;0.80;0.40;;;28.90;92.10;;;;;;5047783;28;20051;-83
2021/12/02 06:55:48;;;;;;;1.15;0.40;;;28.70;92.30;;;;;;5048665;28;20037;-81
2021/12/02 06:58:15;;;;;;;1.35;0.80;;;28.70;92.30;;;;;;5049606;28;20029;-81
2021/12/02 07:00:43;;;;;;;2.60;0.77;;;28.60;92.40;;;;;;5050732;28;20424;-88
2021/12/02 07:03:10;;;;;;;1.83;0.35;;;28.60;92.80;;;;;;5050485;28;20021;-82
2021/12/02 07:05:38;;;;;;;2.85;0.70;;;28.50;92.60;;;;;;5049931;28;20033;-87
2021/12/02 07:08:05;;;;;;;4.97;0.52;;;28.40;92.70;;;;;;5051365;28;20096;-86
2021/12/02 07:10:33;;;;;;;1.65;0.50;;;28.40;92.80;;;;;;5056576;28;20424;-89
2021/12/02 07:13:00;;;;;;;0.70;0.30;;;28.50;92.70;;;;;;5041855;28;20018;-78
2021/12/02 07:15:31;;;;;;;2.42;0.50;;;28.70;92.50;;;;;;5047998;28;20023;-80
2021/12/02 07:18:00;;;;;;;0.80;0.40;;;28.50;92.50;;;;;;5040293;28;20123;-79
2021/12/02 07:20:33;;;;;;;2.75;0.40;;;28.30;92.80;;;;;;5051587;28;20025;-81
2021/12/02 07:23:02;;;;;;;2.20;0.38;;;28.20;92.90;;;;;;5051309;28;20021;-80
2021/12/02 07:25:31;;;;;;;1.73;0.60;;;28.10;93.20;;;;;;5038109;28;20037;-78
2021/12/02 07:27:58;;;;;;;3.75;0.63;;;28.10;93.20;;;;;;5048820;28;20025;-80
2021/12/02 07:30:26;;;;;;;1.38;1.05;;;28.00;93.20;;;;;;5049908;28;20049;-77
2021/12/02 07:32:56;;;;;;;0.95;0.55;;;27.80;93.70;;;;;;5038757;28;20357;-78
2021/12/02 07:35:24;;;;;;;0.80;0.30;;;27.80;93.70;;;;;;5047992;28;20021;-79
2021/12/02 07:38:02;;;;;;;2.83;0.52;;;27.80;93.50;;;;;;5044940;28;20043;-77
2021/12/02 07:40:36;;;;;;;1.10;0.65;;;27.60;93.90;;;;;;5046326;28;20025;-78
2021/12/02 07:43:04;;;;;;;2.33;0.50;;;27.50;93.90;;;;;;5050702;28;20036;-79
2021/12/02 07:45:35;;;;;;;0.70;0.50;;;27.50;94.10;;;;;;5049362;28;20064;-79
2021/12/02 07:48:04;;;;;;;0.98;0.75;;;27.50;94.10;;;;;;5043851;28;20499;-81
2021/12/02 07:50:34;;;;;;;3.10;0.40;;;27.50;94.20;;;;;;5051512;28;20083;-85
2021/12/02 07:53:05;;;;;;;2.60;0.40;;;27.40;94.20;;;;;;5058074;28;20021;-84
2021/12/02 07:55:37;;;;;;;0.77;0.40;;;27.30;94.50;;;;;;5059452;28;20031;-84
2021/12/02 07:58:07;;;;;;;0.85;0.30;;;27.20;94.60;;;;;;5056580;28;20025;-84
2021/12/02 08:00:36;;;;;;;3.60;0.45;;;27.10;94.80;;;;;;5044961;28;20017;-84
2021/12/02 08:03:10;;;;;;;7.88;1.08;;;27.10;94.80;;;;;;5041842;28;20025;-78
2021/12/02 08:05:38;;;;;;;0.93;0.40;;;26.80;95.00;;;;;;5054036;28;20098;-87
2021/12/02 08:08:06;;;;;;;2.45;0.30;;;26.50;95.60;;;;;;5055112;28;20047;-85
2021/12/02 08:10:34;;;;;;;2.08;0.50;;;26.50;96.00;;;;;;5053781;28;20024;-80
2021/12/02 08:13:03;;;;;;;1.45;0.55;;;26.50;96.10;;;;;;5050331;28;20380;-80
2021/12/02 08:15:31;;;;;;;1.00;0.50;;;26.40;95.80;;;;;;5048473;28;20033;-79
2021/12/02 08:17:59;;;;;;;1.20;0.63;;;26.30;96.20;;;;;;5055560;28;20430;-83
2021/12/02 08:20:28;;;;;;;4.03;0.77;;;26.30;96.30;;;;;;5049492;28;20013;-82
2021/12/02 08:22:57;;;;;;;5.35;0.65;;;26.20;96.40;;;;;;5055846;28;20434;-87
2021/12/02 08:25:26;;;;;;;0.75;0.45;;;26.20;96.70;;;;;;5043255;28;20112;-83
2021/12/02 08:27:55;;;;;;;1.25;0.50;;;26.20;96.70;;;;;;5057613;28;20028;-86
2021/12/02 08:30:26;;;;;;;1.73;0.50;;;26.20;96.60;;;;;;5049801;28;20510;-81
2021/12/02 08:32:54;;;;;;;3.30;0.68;;;26.00;96.50;;;;;;5045878;28;20060;-79
2021/12/02 08:35:23;;;;;;;1.58;0.50;;;25.70;97.00;;;;;;5053320;28;20028;-76
2021/12/02 08:37:54;;;;;;;1.15;0.40;;;25.40;97.40;;;;;;5048049;28;20053;-81
2021/12/02 08:40:34;;;;;;;1.20;0.40;;;25.20;97.80;;;;;;5047471;28;20029;-78
2021/12/02 08:43:05;;;;;;;2.50;0.60;;;25.00;98.10;;;;;;5051407;28;20423;-81
2021/12/02 08:45:34;;;;;;;0.98;0.55;;;24.80;98.50;;;;;;5051527;28;20064;-82
2021/12/02 08:48:05;;;;;;;1.15;0.40;;;24.70;99.00;;;;;;5055559;28;20032;-79
2021/12/02 08:50:34;;;;;;;5.25;0.82;;;24.80;99.00;;;;;;5049977;28;20022;-82
2021/12/02 08:53:02;;;;;;;2.58;0.30;;;24.70;99.20;;;;;;5058229;28;20036;-84
2021/12/02 08:55:31;;;;;;;3.45;0.40;;;24.80;99.20;;;;;;5051626;28;20109;-82
2021/12/02 08:57:59;;;;;;;3.95;0.52;;;24.60;99.30;;;;;;5060320;28;20033;-84
2021/12/02 09:00:36;;;;;;;3.30;0.40;;;24.60;99.60;;;;;;5061116;28;20025;-80
2021/12/02 09:03:09;;;;;;;1.52;0.70;;;24.70;99.60;;;;;;5058387;28;20059;-82
2021/12/02 09:05:37;;;;;;;1.45;0.50;;;24.70;99.50;;;;;;5057050;28;20400;-84
2021/12/02 09:08:05;;;;;;;1.00;0.40;;;24.50;99.80;;;;;;5056712;28;20033;-81
2021/12/02 09:10:33;;;;;;;0.70;0.30;;;24.40;99.90;;;;;;5056863;28;20029;-81
2021/12/02 09:13:07;;;;;;;2.42;0.40;;;24.40;99.90;;;;;;5056208;28;20136;-77
2021/12/02 09:15:36;;;;;;;0.47;0.30;;;24.40;99.90;;;;;;5043430;28;20040;-81
2021/12/02 09:18:04;;;;;;;0.80;0.30;;;24.20;99.90;;;;;;5055660;28;20440;-83
2021/12/02 09:20:32;;;;;;;0.60;0.20;;;24.20;99.90;;;;;;5055968;28;20029;-84
2021/12/02 09:22:59;;;;;;;0.75;0.73;;;24.10;99.90;;;;;;5054447;28;20608;-81
2021/12/02 09:25:27;;;;;;;0.82;0.30;;;23.90;99.90;;;;;;5048231;28;20045;-81
2021/12/02 09:27:55;;;;;;;0.85;0.20;;;23.80;99.90;;;;;;5055985;28;20112;-86
2021/12/02 09:30:25;;;;;;;1.05;0.45;;;23.80;99.90;;;;;;5048237;28;20045;-80
2021/12/02 09:32:52;;;;;;;1.30;0.30;;;23.80;99.90;;;;;;5038533;28;20021;-84
2021/12/02 09:35:20;;;;;;;4.22;0.57;;;23.70;99.90;;;;;;5046933;28;20013;-84
2021/12/02 09:37:48;;;;;;;1.02;0.40;;;23.70;99.90;;;;;;5059289;28;20029;-82
2021/12/02 09:40:16;;;;;;;1.98;0.50;;;23.70;99.90;;;;;;5054018;28;20025;-80
2021/12/02 09:42:44;;;;;;;1.15;0.55;;;23.70;99.90;;;;;;5056073;28;20036;-80
2021/12/02 09:45:13;;;;;;;1.65;0.43;;;23.60;99.90;;;;;;5061339;28;20048;-85
2021/12/02 09:47:45;;;;;;;0.50;0.30;;;23.40;99.90;;;;;;5058801;28;20040;-83
2021/12/02 09:50:21;;;;;;;0.65;0.35;;;23.30;99.90;;;;;;5051295;28;20024;-80
2021/12/02 09:52:51;;;;;;;1.42;0.30;;;23.20;99.90;;;;;;5050298;28;20033;-90
2021/12/02 09:55:31;;;;;;;0.63;0.22;;;23.20;99.90;;;;;;5045361;28;20573;-79
2021/12/02 09:58:00;;;;;;;0.77;0.20;;;23.20;99.90;;;;;;5050497;28;20021;-79
2021/12/02 10:03:31;;;;;;;0.52;0.20;;;23.00;99.90;;;;;;5027282;28;20044;-84
2021/12/02 10:06:17;;;;;;;1.05;0.30;;;22.90;99.90;;;;;;5046537;28;20057;-89
2021/12/02 10:09:08;;;;;;;2.72;0.30;;;22.90;99.90;;;;;;5055863;28;20079;-88
2021/12/02 10:11:50;;;;;;;3.13;0.50;;;23.00;99.90;;;;;;5062428;28;20032;-87
2021/12/02 10:14:23;;;;;;;0.80;0.20;;;23.00;99.90;;;;;;5053381;28;20028;-78
2021/12/02 10:23:27;;;;;;;1.38;0.20;;;22.60;99.90;;;;;;5052496;28;20030;-86
2021/12/02 10:26:01;;;;;;;1.35;0.40;;;22.50;99.90;;;;;;5046944;28;20086;-90
2021/12/02 10:28:31;;;;;;;1.35;0.20;;;22.40;99.90;;;;;;5054580;28;20074;-82
2021/12/02 10:31:02;;;;;;;0.40;0.40;;;22.50;99.90;;;;;;5057033;28;20099;-87
2021/12/02 10:33:36;;;;;;;0.93;0.28;;;22.50;99.90;;;;;;5053936;28;20239;-86
2021/12/02 10:36:23;;;;;;;0.60;0.10;;;22.40;99.90;;;;;;5051882;28;20092;-87
2021/12/02 10:38:51;;;;;;;5.55;0.70;;;22.40;99.90;;;;;;5055187;28;20024;-90
2021/12/02 10:41:21;;;;;;;1.17;0.50;;;22.50;99.90;;;;;;5052761;28;20025;-86
2021/12/02 10:44:09;;;;;;;1.90;0.30;;;22.50;99.90;;;;;;5054604;28;20037;-90
2021/12/02 10:46:40;;;;;;;1.23;0.17;;;22.50;99.90;;;;;;5055207;28;20033;-88
2021/12/02 10:49:16;;;;;;;0.68;0.38;;;22.50;99.90;;;;;;5055138;28;20434;-90
2021/12/02 10:51:50;;;;;;;0.57;0.25;;;22.30;99.90;;;;;;5044606;28;20116;-92
2021/12/02 10:54:22;;;;;;;0.40;0.10;;;22.30;99.90;;;;;;5049780;28;20025;-86
2021/12/02 10:56:53;;;;;;;1.30;0.20;;;22.30;99.90;;;;;;5036433;28;20105;-84
2021/12/02 10:59:26;;;;;;;0.82;0.30;;;22.20;99.90;;;;;;5043693;28;20036;-84
2021/12/02 11:01:56;;;;;;;1.27;0.32;;;22.20;99.90;;;;;;5036396;28;20425;-81
2021/12/02 11:04:24;;;;;;;0.20;0.10;;;22.10;99.90;;;;;;5038914;28;20021;-84
2021/12/02 11:06:55;;;;;;;0.13;0.13;;;22.10;99.90;;;;;;5047449;28;20475;-81
2021/12/02 11:09:29;;;;;;;4.85;0.55;;;22.10;99.90;;;;;;5055807;28;20024;-84
2021/12/02 11:12:19;;;;;;;1.15;0.30;;;22.00;99.90;;;;;;5044074;28;20024;-87
2021/12/02 11:15:03;;;;;;;0.20;0.20;;;22.00;99.90;;;;;;5045526;28;20025;-78
2021/12/02 11:17:33;;;;;;;1.27;0.77;;;21.90;99.90;;;;;;5043351;28;20029;-77
2021/12/02 11:20:15;;;;;;;1.75;0.30;;;21.80;99.90;;;;;;5047393;28;20033;-77
2021/12/02 11:22:42;;;;;;;2.15;0.20;;;21.80;99.90;;;;;;5037743;28;20025;-77
2021/12/02 11:25:11;;;;;;;4.15;0.38;;;21.70;99.90;;;;;;5042730;28;20029;-75
2021/12/02 11:27:46;;;;;;;0.60;0.15;;;21.70;99.90;;;;;;5038566;28;20041;-75
2021/12/02 11:30:23;;;;;;;0.32;0.10;;;21.60;99.90;;;;;;5040013;28;20510;-77
2021/12/02 11:33:01;;;;;;;0.38;0.20;;;21.60;99.90;;;;;;5032946;28;20111;-78
2021/12/02 11:35:32;;;;;;;0.60;0.20;;;21.60;99.90;;;;;;5042011;28;20027;-76
2021/12/02 11:38:10;;;;;;;0.40;0.30;;;21.60;99.90;;;;;;5040611;28;20036;-77
2021/12/02 11:40:46;;;;;;;2.45;0.40;;;21.60;99.90;;;;;;5037708;28;20049;-76
2021/12/02 11:43:16;;;;;;;1.27;0.30;;;21.50;99.90;;;;;;5050424;28;20102;-76
2021/12/02 11:45:49;;;;;;;0.50;0.40;;;21.50;99.90;;;;;;5044401;28;20029;-77
2021/12/02 11:48:22;;;;;;;0.32;0.15;;;21.50;99.90;;;;;;5039245;28;20028;-76
2021/12/02 11:50:51;;;;;;;0.30;0.10;;;21.50;99.90;;;;;;5039890;28;20515;-78
2021/12/02 11:53:22;;;;;;;1.00;0.25;;;21.50;99.90;;;;;;5044559;28;20505;-78
2021/12/02 11:55:56;;;;;;;0.50;0.40;;;21.40;99.90;;;;;;5042363;28;20031;-79
2021/12/02 11:58:24;;;;;;;1.00;0.25;;;21.40;99.90;;;;;;5041038;28;20067;-78
2021/12/02 12:00:52;;;;;;;1.90;0.30;;;21.30;99.90;;;;;;5038838;28;20049;-76
2021/12/02 12:03:27;;;;;;;1.02;0.20;;;21.30;99.90;;;;;;5043606;28;20053;-76
2021/12/02 12:05:54;;;;;;;2.35;0.30;;;21.30;99.90;;;;;;5037672;28;20167;-76
2021/12/02 12:08:34;;;;;;;3.85;0.85;;;21.30;99.90;;;;;;5039122;28;20092;-77
2021/12/02 12:11:25;;;;;;;1.40;0.30;;;21.30;99.90;;;;;;5043680;28;20029;-76
2021/12/02 12:13:56;;;;;;;0.73;0.25;;;21.30;99.90;;;;;;5035972;28;20382;-73
2021/12/02 12:16:26;;;;;;;0.63;0.22;;;21.20;99.90;;;;;;5042566;28;20423;-77
2021/12/02 12:18:55;;;;;;;2.58;0.20;;;21.20;99.90;;;;;;5046707;28;20021;-74
2021/12/02 12:21:40;;;;;;;0.13;0.10;;;21.20;99.90;;;;;;5045831;28;20037;-74
2021/12/02 12:24:09;;;;;;;1.20;0.50;;;21.20;99.90;;;;;;5035288;28;20029;-74
2021/12/02 12:26:40;;;;;;;1.50;0.20;;;21.20;99.90;;;;;;5045378;28;20040;-77
2021/12/02 12:29:08;;;;;;;3.88;0.60;;;21.10;99.90;;;;;;5043879;28;20034;-76
2021/12/02 12:31:50;;;;;;;1.23;0.85;;;21.10;99.90;;;;;;5043116;28;20446;-75
2021/12/02 12:34:30;;;;;;;0.57;0.25;;;21.10;99.90;;;;;;5039424;28;20029;-73
2021/12/02 12:36:59;;;;;;;0.30;0.20;;;21.10;99.90;;;;;;5046440;28;20419;-75
2021/12/02 12:39:31;;;;;;;0.88;0.40;;;21.00;99.90;;;;;;5051170;28;20547;-75
2021/12/02 12:42:16;;;;;;;2.25;0.73;;;21.00;99.90;;;;;;5044883;28;20545;-76
2021/12/02 12:45:01;;;;;;;1.27;0.40;;;20.90;99.90;;;;;;5047426;28;20037;-76
2021/12/02 12:47:54;;;;;;;0.38;0.28;;;20.90;99.90;;;;;;5051919;28;20288;-74
2021/12/02 12:50:54;;;;;;;3.20;0.50;;;20.90;99.90;;;;;;5051492;28;20013;-75
2021/12/02 12:53:37;;;;;;;2.05;0.40;;;20.90;99.90;;;;;;5036975;28;20071;-75
2021/12/02 12:56:12;;;;;;;3.05;0.30;;;20.90;99.90;;;;;;5048149;28;20033;-77
2021/12/02 12:58:56;;;;;;;;;;;20.80;99.90;;;;;;5053195;28;20029;-76
2021/12/02 13:01:26;;;;;;;0.60;0.20;;;20.90;99.90;;;;;;5036628;28;19916;-75
2021/12/02 13:04:14;;;;;;;0.40;0.30;;;20.80;99.90;;;;;;5052904;28;20083;-78
2021/12/02 13:06:53;;;;;;;0.63;0.15;;;20.80;99.90;;;;;;5049580;28;20067;-78
2021/12/02 13:09:40;;;;;;;0.73;0.30;;;20.70;99.90;;;;;;5035640;28;20021;-75
2021/12/02 13:12:11;;;;;;;2.28;0.30;;;20.70;99.90;;;;;;5043858;28;20396;-78
2021/12/02 13:14:40;;;;;;;0.85;0.22;;;20.70;99.90;;;;;;5045578;28;20053;-77
2021/12/02 13:17:38;;;;;;;0.20;0.20;;;20.70;99.90;;;;;;5046372;28;20033;-77
2021/12/02 13:20:22;;;;;;;4.90;0.43;;;20.60;99.90;;;;;;5040755;28;20035;-78
2021/12/02 13:23:12;;;;;;;1.85;0.40;;;20.60;99.90;;;;;;5052454;28;20830;-80
2021/12/02 13:25:54;;;;;;;2.47;0.30;;;20.60;99.90;;;;;;5039128;28;20069;-76
2021/12/02 13:28:28;;;;;;;2.58;0.32;;;20.60;99.90;;;;;;5039809;28;20108;-79